<?xml version="1.0" encoding="UTF-8" standalone="no" ?>
<gpx xmlns="http://www.topografix.com/GPX/1/1" xmlns:xsi="http://www.w3.org/2001/XMLSchema-instance" xsi:schemaLocation="http://www.topografix.com/GPX/1/1 http://www.topografix.com/GPX/1/1/gpx.xsd" version="1.1" creator="VisuGPX - https://www.visugpx.com">
  <metadata>
    <name>J4 chamousse Matin</name>
    <desc><![CDATA[J4 chamousse Matin ffffffffffffffffffffffffffffffffffffffffffffffffffffffffffffffffffffffffffffffffffffffffffffffffffffffff]]></desc>
  </metadata>
  <trk>
    <name><![CDATA[9468396-J4 chamousse corrigé]]></name>
    <trkseg>
      <trkpt lat="44.22954" lon="5.50728">
        <ele>839</ele>
        <time>2019-01-14T15:31:28Z</time>
      </trkpt>
      <trkpt lat="44.2304" lon="5.50415">
        <ele>837</ele>
        <time>2019-01-14T15:32:28Z</time>
      </trkpt>
      <trkpt lat="44.23112" lon="5.50249">
        <ele>829</ele>
        <time>2019-01-14T15:33:28Z</time>
      </trkpt>
      <trkpt lat="44.23309" lon="5.50133">
        <ele>832</ele>
        <time>2019-01-14T15:34:28Z</time>
      </trkpt>
      <trkpt lat="44.23542" lon="5.50162">
        <ele>840</ele>
        <time>2019-01-14T15:35:28Z</time>
      </trkpt>
      <trkpt lat="44.2379" lon="5.50169">
        <ele>838</ele>
        <time>2019-01-14T15:36:28Z</time>
      </trkpt>
      <trkpt lat="44.24115" lon="5.50285">
        <ele>845</ele>
        <time>2019-01-14T15:37:28Z</time>
      </trkpt>
      <trkpt lat="44.24436" lon="5.50112">
        <ele>860</ele>
        <time>2019-01-14T15:38:28Z</time>
      </trkpt>
      <trkpt lat="44.24633" lon="5.50429">
        <ele>887</ele>
        <time>2019-01-14T15:39:28Z</time>
      </trkpt>
      <trkpt lat="44.247" lon="5.50119">
        <ele>903</ele>
        <time>2019-01-14T15:40:28Z</time>
      </trkpt>
      <trkpt lat="44.24664" lon="5.49917">
        <ele>899</ele>
        <time>2019-01-14T15:41:28Z</time>
      </trkpt>
      <trkpt lat="44.24746" lon="5.497">
        <ele>929</ele>
        <time>2019-01-14T15:42:28Z</time>
      </trkpt>
      <trkpt lat="44.2488" lon="5.49729">
        <ele>945</ele>
        <time>2019-01-14T15:43:28Z</time>
      </trkpt>
      <trkpt lat="44.24975" lon="5.49649">
        <ele>968</ele>
        <time>2019-01-14T15:44:28Z</time>
      </trkpt>
      <trkpt lat="44.25082" lon="5.49906">
        <ele>989</ele>
        <time>2019-01-14T15:45:28Z</time>
      </trkpt>
      <trkpt lat="44.25126" lon="5.50276">
        <ele>1014</ele>
        <time>2019-01-14T15:46:28Z</time>
      </trkpt>
      <trkpt lat="44.25126" lon="5.50342">
        <ele>1018</ele>
        <time>2019-01-14T15:47:28Z</time>
      </trkpt>
      <trkpt lat="44.25133" lon="5.50411">
        <ele>1028</ele>
        <time>2019-01-14T15:48:28Z</time>
      </trkpt>
      <trkpt lat="44.2513" lon="5.50474">
        <ele>1033</ele>
        <time>2019-01-14T15:49:28Z</time>
      </trkpt>
      <trkpt lat="44.25127" lon="5.50559">
        <ele>1041</ele>
        <time>2019-01-14T15:50:28Z</time>
      </trkpt>
      <trkpt lat="44.25131" lon="5.50641">
        <ele>1050</ele>
        <time>2019-01-14T15:51:28Z</time>
      </trkpt>
      <trkpt lat="44.25133" lon="5.50678">
        <ele>1053</ele>
        <time>2019-01-14T15:52:28Z</time>
      </trkpt>
      <trkpt lat="44.25147" lon="5.50741">
        <ele>1064</ele>
        <time>2019-01-14T15:53:28Z</time>
      </trkpt>
      <trkpt lat="44.2516" lon="5.50785">
        <ele>1070</ele>
        <time>2019-01-14T15:54:28Z</time>
      </trkpt>
      <trkpt lat="44.25161" lon="5.50943">
        <ele>1072</ele>
        <time>2019-01-14T15:55:28Z</time>
      </trkpt>
      <trkpt lat="44.25148" lon="5.51345">
        <ele>1102</ele>
        <time>2019-01-14T15:56:28Z</time>
      </trkpt>
      <trkpt lat="44.25172" lon="5.51339">
        <ele>1105</ele>
        <time>2019-01-14T15:57:28Z</time>
      </trkpt>
      <trkpt lat="44.25225" lon="5.51248">
        <ele>1107</ele>
        <time>2019-01-14T15:58:28Z</time>
      </trkpt>
      <trkpt lat="44.25303" lon="5.51234">
        <ele>1115</ele>
        <time>2019-01-14T15:59:28Z</time>
      </trkpt>
      <trkpt lat="44.2536" lon="5.51315">
        <ele>1107</ele>
        <time>2019-01-14T16:00:28Z</time>
      </trkpt>
      <trkpt lat="44.25335" lon="5.51366">
        <ele>1108</ele>
        <time>2019-01-14T16:01:28Z</time>
      </trkpt>
      <trkpt lat="44.25396" lon="5.5135">
        <ele>1103</ele>
        <time>2019-01-14T16:02:28Z</time>
      </trkpt>
      <trkpt lat="44.25479" lon="5.51341">
        <ele>1073</ele>
        <time>2019-01-14T16:03:28Z</time>
      </trkpt>
      <trkpt lat="44.25531" lon="5.51531">
        <ele>1064</ele>
        <time>2019-01-14T16:04:28Z</time>
      </trkpt>
      <trkpt lat="44.25637" lon="5.51661">
        <ele>1023</ele>
        <time>2019-01-14T16:05:28Z</time>
      </trkpt>
      <trkpt lat="44.25695" lon="5.51634">
        <ele>1000</ele>
        <time>2019-01-14T16:06:28Z</time>
      </trkpt>
      <trkpt lat="44.25741" lon="5.5165">
        <ele>988</ele>
        <time>2019-01-14T16:07:28Z</time>
      </trkpt>
      <trkpt lat="44.25766" lon="5.51726">
        <ele>983</ele>
        <time>2019-01-14T16:08:28Z</time>
      </trkpt>
      <trkpt lat="44.25871" lon="5.51686">
        <ele>974</ele>
        <time>2019-01-14T16:09:28Z</time>
      </trkpt>
      <trkpt lat="44.25811" lon="5.5178">
        <ele>964</ele>
        <time>2019-01-14T16:10:28Z</time>
      </trkpt>
      <trkpt lat="44.25801" lon="5.51836">
        <ele>958</ele>
        <time>2019-01-14T16:11:28Z</time>
      </trkpt>
      <trkpt lat="44.25837" lon="5.51863">
        <ele>945</ele>
        <time>2019-01-14T16:12:28Z</time>
      </trkpt>
      <trkpt lat="44.25837" lon="5.51902">
        <ele>944</ele>
        <time>2019-01-14T16:13:28Z</time>
      </trkpt>
      <trkpt lat="44.25869" lon="5.51929">
        <ele>936</ele>
        <time>2019-01-14T16:14:28Z</time>
      </trkpt>
      <trkpt lat="44.25909" lon="5.51956">
        <ele>926</ele>
        <time>2019-01-14T16:15:28Z</time>
      </trkpt>
      <trkpt lat="44.25939" lon="5.51976">
        <ele>920</ele>
        <time>2019-01-14T16:16:28Z</time>
      </trkpt>
      <trkpt lat="44.25959" lon="5.5203">
        <ele>914</ele>
        <time>2019-01-14T16:17:28Z</time>
      </trkpt>
      <trkpt lat="44.2601" lon="5.52122">
        <ele>900</ele>
        <time>2019-01-14T16:18:28Z</time>
      </trkpt>
      <trkpt lat="44.26075" lon="5.52166">
        <ele>883</ele>
        <time>2019-01-14T16:19:28Z</time>
      </trkpt>
      <trkpt lat="44.26119" lon="5.52173">
        <ele>876</ele>
        <time>2019-01-14T16:20:28Z</time>
      </trkpt>
      <trkpt lat="44.26147" lon="5.52213">
        <ele>870</ele>
        <time>2019-01-14T16:21:28Z</time>
      </trkpt>
      <trkpt lat="44.26236" lon="5.52265">
        <ele>850</ele>
        <time>2019-01-14T16:22:28Z</time>
      </trkpt>
      <trkpt lat="44.26266" lon="5.52348">
        <ele>841</ele>
        <time>2019-01-14T16:23:28Z</time>
      </trkpt>
      <trkpt lat="44.2626" lon="5.52408">
        <ele>836</ele>
        <time>2019-01-14T16:24:28Z</time>
      </trkpt>
      <trkpt lat="44.26252" lon="5.52438">
        <ele>835</ele>
        <time>2019-01-14T16:25:28Z</time>
      </trkpt>
      <trkpt lat="44.2631" lon="5.52474">
        <ele>825</ele>
        <time>2019-01-14T16:26:28Z</time>
      </trkpt>
      <trkpt lat="44.26371" lon="5.52494">
        <ele>817</ele>
        <time>2019-01-14T16:27:28Z</time>
      </trkpt>
      <trkpt lat="44.26424" lon="5.52563">
        <ele>812</ele>
        <time>2019-01-14T16:28:28Z</time>
      </trkpt>
      <trkpt lat="44.26473" lon="5.52631">
        <ele>809</ele>
        <time>2019-01-14T16:29:28Z</time>
      </trkpt>
      <trkpt lat="44.26517" lon="5.52711">
        <ele>805</ele>
        <time>2019-01-14T16:30:28Z</time>
      </trkpt>
      <trkpt lat="44.26539" lon="5.52756">
        <ele>802</ele>
        <time>2019-01-14T16:31:28Z</time>
      </trkpt>
      <trkpt lat="44.26566" lon="5.52801">
        <ele>798</ele>
        <time>2019-01-14T16:32:28Z</time>
      </trkpt>
      <trkpt lat="44.26637" lon="5.52821">
        <ele>791</ele>
        <time>2019-01-14T16:33:28Z</time>
      </trkpt>
      <trkpt lat="44.267" lon="5.52848">
        <ele>787</ele>
        <time>2019-01-14T16:34:28Z</time>
      </trkpt>
      <trkpt lat="44.26764" lon="5.5286">
        <ele>782</ele>
        <time>2019-01-14T16:35:28Z</time>
      </trkpt>
      <trkpt lat="44.26804" lon="5.52895">
        <ele>778</ele>
        <time>2019-01-14T16:36:28Z</time>
      </trkpt>
      <trkpt lat="44.2689" lon="5.529">
        <ele>774</ele>
        <time>2019-01-14T16:37:28Z</time>
      </trkpt>
      <trkpt lat="44.26926" lon="5.52844">
        <ele>772</ele>
        <time>2019-01-14T16:38:28Z</time>
      </trkpt>
      <trkpt lat="44.26937" lon="5.52777">
        <ele>770</ele>
        <time>2019-01-14T16:39:28Z</time>
      </trkpt>
      <trkpt lat="44.27118" lon="5.52763">
        <ele>775</ele>
        <time>2019-01-14T16:40:28Z</time>
      </trkpt>
      <trkpt lat="44.27165" lon="5.52743">
        <ele>773</ele>
        <time>2019-01-14T16:41:28Z</time>
      </trkpt>
      <trkpt lat="44.27213" lon="5.52783">
        <ele>777</ele>
        <time>2019-01-14T16:42:28Z</time>
      </trkpt>
      <trkpt lat="44.27273" lon="5.52832">
        <ele>779</ele>
        <time>2019-01-14T16:43:28Z</time>
      </trkpt>
      <trkpt lat="44.27373" lon="5.52972">
        <ele>788</ele>
        <time>2019-01-14T16:44:28Z</time>
      </trkpt>
      <trkpt lat="44.2749" lon="5.53077">
        <ele>796</ele>
        <time>2019-01-14T16:45:28Z</time>
      </trkpt>
      <trkpt lat="44.2758" lon="5.5314">
        <ele>810</ele>
        <time>2019-01-14T16:46:28Z</time>
      </trkpt>
      <trkpt lat="44.27539" lon="5.53057">
        <ele>802</ele>
        <time>2019-01-14T16:47:28Z</time>
      </trkpt>
      <trkpt lat="44.27618" lon="5.52992">
        <ele>811</ele>
        <time>2019-01-14T16:48:28Z</time>
      </trkpt>
      <trkpt lat="44.27723" lon="5.53003">
        <ele>824</ele>
        <time>2019-01-14T16:49:28Z</time>
      </trkpt>
      <trkpt lat="44.27832" lon="5.53017">
        <ele>835</ele>
        <time>2019-01-14T16:50:28Z</time>
      </trkpt>
      <trkpt lat="44.27959" lon="5.5301">
        <ele>847</ele>
        <time>2019-01-14T16:51:28Z</time>
      </trkpt>
      <trkpt lat="44.28062" lon="5.52996">
        <ele>859</ele>
        <time>2019-01-14T16:52:28Z</time>
      </trkpt>
      <trkpt lat="44.28143" lon="5.52857">
        <ele>871</ele>
        <time>2019-01-14T16:53:28Z</time>
      </trkpt>
      <trkpt lat="44.28222" lon="5.52826">
        <ele>874</ele>
        <time>2019-01-14T16:54:28Z</time>
      </trkpt>
      <trkpt lat="44.28335" lon="5.52821">
        <ele>878</ele>
        <time>2019-01-14T16:55:28Z</time>
      </trkpt>
      <trkpt lat="44.2846" lon="5.5285">
        <ele>885</ele>
        <time>2019-01-14T16:56:28Z</time>
      </trkpt>
      <trkpt lat="44.2861" lon="5.52828">
        <ele>894</ele>
        <time>2019-01-14T16:57:28Z</time>
      </trkpt>
      <trkpt lat="44.28748" lon="5.52776">
        <ele>900</ele>
        <time>2019-01-14T16:58:28Z</time>
      </trkpt>
      <trkpt lat="44.28896" lon="5.5264">
        <ele>904</ele>
        <time>2019-01-14T16:59:28Z</time>
      </trkpt>
      <trkpt lat="44.28811" lon="5.52776">
        <ele>917</ele>
        <time>2019-01-14T17:00:28Z</time>
      </trkpt>
      <trkpt lat="44.28731" lon="5.529">
        <ele>926</ele>
        <time>2019-01-14T17:01:28Z</time>
      </trkpt>
      <trkpt lat="44.28673" lon="5.52985">
        <ele>931</ele>
        <time>2019-01-14T17:02:28Z</time>
      </trkpt>
      <trkpt lat="44.28584" lon="5.53088">
        <ele>938</ele>
        <time>2019-01-14T17:03:28Z</time>
      </trkpt>
      <trkpt lat="44.28513" lon="5.53165">
        <ele>941</ele>
        <time>2019-01-14T17:04:28Z</time>
      </trkpt>
      <trkpt lat="44.28439" lon="5.53256">
        <ele>951</ele>
        <time>2019-01-14T17:05:28Z</time>
      </trkpt>
      <trkpt lat="44.28386" lon="5.53277">
        <ele>950</ele>
        <time>2019-01-14T17:06:28Z</time>
      </trkpt>
      <trkpt lat="44.28353" lon="5.53337">
        <ele>958</ele>
        <time>2019-01-14T17:07:28Z</time>
      </trkpt>
      <trkpt lat="44.28278" lon="5.53389">
        <ele>957</ele>
        <time>2019-01-14T17:08:28Z</time>
      </trkpt>
      <trkpt lat="44.28204" lon="5.53535">
        <ele>973</ele>
        <time>2019-01-14T17:09:28Z</time>
      </trkpt>
      <trkpt lat="44.28132" lon="5.536">
        <ele>966</ele>
        <time>2019-01-14T17:10:28Z</time>
      </trkpt>
      <trkpt lat="44.28147" lon="5.53739">
        <ele>985</ele>
        <time>2019-01-14T17:11:28Z</time>
      </trkpt>
      <trkpt lat="44.28072" lon="5.53875">
        <ele>979</ele>
        <time>2019-01-14T17:12:28Z</time>
      </trkpt>
      <trkpt lat="44.2808" lon="5.54053">
        <ele>997</ele>
        <time>2019-01-14T17:13:28Z</time>
      </trkpt>
      <trkpt lat="44.28048" lon="5.54178">
        <ele>1009</ele>
        <time>2019-01-14T17:14:28Z</time>
      </trkpt>
      <trkpt lat="44.27964" lon="5.54212">
        <ele>1005</ele>
        <time>2019-01-14T17:15:28Z</time>
      </trkpt>
      <trkpt lat="44.27857" lon="5.543">
        <ele>1013</ele>
        <time>2019-01-14T17:16:28Z</time>
      </trkpt>
      <trkpt lat="44.27866" lon="5.54378">
        <ele>1024</ele>
        <time>2019-01-14T17:17:28Z</time>
      </trkpt>
      <trkpt lat="44.27754" lon="5.54465">
        <ele>1043</ele>
        <time>2019-01-14T17:18:28Z</time>
      </trkpt>
      <trkpt lat="44.27765" lon="5.54385">
        <ele>1030</ele>
        <time>2019-01-14T17:19:28Z</time>
      </trkpt>
      <trkpt lat="44.27713" lon="5.54378">
        <ele>1043</ele>
        <time>2019-01-14T17:20:28Z</time>
      </trkpt>
      <trkpt lat="44.27667" lon="5.54234">
        <ele>1045</ele>
        <time>2019-01-14T17:21:28Z</time>
      </trkpt>
      <trkpt lat="44.27571" lon="5.54264">
        <ele>1060</ele>
        <time>2019-01-14T17:22:28Z</time>
      </trkpt>
      <trkpt lat="44.27512" lon="5.54353">
        <ele>1070</ele>
        <time>2019-01-14T17:23:28Z</time>
      </trkpt>
      <trkpt lat="44.27499" lon="5.5445">
        <ele>1083</ele>
        <time>2019-01-14T17:24:28Z</time>
      </trkpt>
      <trkpt lat="44.27463" lon="5.54513">
        <ele>1091</ele>
        <time>2019-01-14T17:25:28Z</time>
      </trkpt>
      <trkpt lat="44.27399" lon="5.54531">
        <ele>1087</ele>
        <time>2019-01-14T17:26:28Z</time>
      </trkpt>
      <trkpt lat="44.27479" lon="5.54566">
        <ele>1105</ele>
        <time>2019-01-14T17:27:28Z</time>
      </trkpt>
      <trkpt lat="44.27563" lon="5.54558">
        <ele>1104</ele>
        <time>2019-01-14T17:28:28Z</time>
      </trkpt>
      <trkpt lat="44.2746" lon="5.54656">
        <ele>1125</ele>
        <time>2019-01-14T17:29:28Z</time>
      </trkpt>
      <trkpt lat="44.27388" lon="5.54742">
        <ele>1138</ele>
        <time>2019-01-14T17:30:28Z</time>
      </trkpt>
      <trkpt lat="44.2734" lon="5.5475">
        <ele>1138</ele>
        <time>2019-01-14T17:31:28Z</time>
      </trkpt>
      <trkpt lat="44.27287" lon="5.54809">
        <ele>1142</ele>
        <time>2019-01-14T17:32:28Z</time>
      </trkpt>
      <trkpt lat="44.27214" lon="5.54896">
        <ele>1158</ele>
        <time>2019-01-14T17:33:28Z</time>
      </trkpt>
      <trkpt lat="44.27202" lon="5.54939">
        <ele>1167</ele>
        <time>2019-01-14T17:34:28Z</time>
      </trkpt>
      <trkpt lat="44.2713" lon="5.5488">
        <ele>1158</ele>
        <time>2019-01-14T17:35:28Z</time>
      </trkpt>
      <trkpt lat="44.27079" lon="5.54925">
        <ele>1169</ele>
        <time>2019-01-14T17:36:28Z</time>
      </trkpt>
      <trkpt lat="44.27013" lon="5.54982">
        <ele>1173</ele>
        <time>2019-01-14T17:37:28Z</time>
      </trkpt>
      <trkpt lat="44.2699" lon="5.55109">
        <ele>1183</ele>
        <time>2019-01-14T17:38:28Z</time>
      </trkpt>
      <trkpt lat="44.27099" lon="5.55018">
        <ele>1187</ele>
        <time>2019-01-14T17:39:28Z</time>
      </trkpt>
      <trkpt lat="44.27016" lon="5.55201">
        <ele>1207</ele>
        <time>2019-01-14T17:40:28Z</time>
      </trkpt>
      <trkpt lat="44.26982" lon="5.55302">
        <ele>1222</ele>
        <time>2019-01-14T17:41:28Z</time>
      </trkpt>
      <trkpt lat="44.2688" lon="5.55361">
        <ele>1221</ele>
        <time>2019-01-14T17:42:28Z</time>
      </trkpt>
      <trkpt lat="44.26924" lon="5.55394">
        <ele>1234</ele>
        <time>2019-01-14T17:43:28Z</time>
      </trkpt>
      <trkpt lat="44.26844" lon="5.55477">
        <ele>1239</ele>
        <time>2019-01-14T17:44:28Z</time>
      </trkpt>
      <trkpt lat="44.26951" lon="5.55439">
        <ele>1250</ele>
        <time>2019-01-14T17:45:28Z</time>
      </trkpt>
      <trkpt lat="44.27043" lon="5.55412">
        <ele>1258</ele>
        <time>2019-01-14T17:46:28Z</time>
      </trkpt>
      <trkpt lat="44.27096" lon="5.5537">
        <ele>1257</ele>
        <time>2019-01-14T17:47:28Z</time>
      </trkpt>
      <trkpt lat="44.27164" lon="5.55387">
        <ele>1263</ele>
        <time>2019-01-14T17:48:28Z</time>
      </trkpt>
      <trkpt lat="44.27214" lon="5.55491">
        <ele>1280</ele>
        <time>2019-01-14T17:49:28Z</time>
      </trkpt>
      <trkpt lat="44.27264" lon="5.55507">
        <ele>1285</ele>
        <time>2019-01-14T17:50:28Z</time>
      </trkpt>
      <trkpt lat="44.27255" lon="5.55551">
        <ele>1289</ele>
        <time>2019-01-14T17:51:28Z</time>
      </trkpt>
      <trkpt lat="44.27231" lon="5.55616">
        <ele>1297</ele>
        <time>2019-01-14T17:52:28Z</time>
      </trkpt>
      <trkpt lat="44.27202" lon="5.55673">
        <ele>1301</ele>
        <time>2019-01-14T17:53:28Z</time>
      </trkpt>
      <trkpt lat="44.27176" lon="5.55717">
        <ele>1304</ele>
        <time>2019-01-14T17:54:28Z</time>
      </trkpt>
      <trkpt lat="44.2713" lon="5.55711">
        <ele>1303</ele>
        <time>2019-01-14T17:55:28Z</time>
      </trkpt>
      <trkpt lat="44.27081" lon="5.55719">
        <ele>1304</ele>
        <time>2019-01-14T17:56:28Z</time>
      </trkpt>
      <trkpt lat="44.27079" lon="5.55749">
        <ele>1307</ele>
        <time>2019-01-14T17:57:28Z</time>
      </trkpt>
      <trkpt lat="44.27083" lon="5.55765">
        <ele>1309</ele>
        <time>2019-01-14T17:58:28Z</time>
      </trkpt>
      <trkpt lat="44.27101" lon="5.5579">
        <ele>1312</ele>
        <time>2019-01-14T17:59:28Z</time>
      </trkpt>
      <trkpt lat="44.27066" lon="5.5576">
        <ele>1310</ele>
        <time>2019-01-14T18:00:28Z</time>
      </trkpt>
      <trkpt lat="44.27093" lon="5.55759">
        <ele>1308</ele>
        <time>2019-01-14T18:01:28Z</time>
      </trkpt>
      <trkpt lat="44.27102" lon="5.55754">
        <ele>1307</ele>
        <time>2019-01-14T18:02:28Z</time>
      </trkpt>
      <trkpt lat="44.27095" lon="5.55735">
        <ele>1305</ele>
        <time>2019-01-14T18:03:28Z</time>
      </trkpt>
    </trkseg>
  </trk>
</gpx>